Weather History for Clinton, IA

Change the Weather History Date:

Tuesday, February 19, 2013

  Actual Average Record
Temperature  
Mean Temperature 12 °F -  
Max Temperature 17 °F 37 °F 61 °F (1971)
Min Temperature 6 °F 20 °F -15 °F (1979)
Degree Days  
Heating Degree Days 54    
Moisture  
Dew Point 4 °F    
Average Humidity 70    
Maximum Humidity 79    
Minimum Humidity 62    
Precipitation  
Precipitation 0.01 in - - ()
Sea Level Pressure  
Sea Level Pressure 30.01 in    
Wind  
Wind Speed 28 mph (WNW)    
Max Wind Speed 33 mph    
Max Gust Speed 41 mph    
Visibility 10 miles    
Events      
Averages and records for this station are not official NWS values.
T = Trace of Precipitation, MM = Missing Value Source: NWS Daily Summary

Daily Weather History Graph

Daily Weather History Graph

Search for Another Location

Airport:

Trip Planner

Search our weather history database for the weather conditions in past years. The results will help you decide how hot, cold, wet, or windy it might be!

Date:

Astronomy

Feb. 19, 2013 Rise Set
Actual Time 6:50 AM CST 5:39 PM CST
Civil Twilight 6:22 AM CST 6:08 PM CST
Nautical Twilight 5:50 AM CST 6:40 PM CST
Astronomical Twilight 5:18 AM CST 7:12 PM CST
Moon 12:08 PM CST (2/19) 2:25 AM CST (2/19)
Length of Visible Light 11h 45m
Length of Day
10h 48m
Waxing Gibbous, 67% of the Moon is Illuminated
Feb 19
Waxing Gibbous
Feb 25
Full
Mar 4
Last Quarter
Mar 11
New
Mar 19
First Quarter

Hourly Weather History & Observations

Time (CST) Temp. Windchill Dew Point Humidity Pressure Visibility Wind Dir Wind Speed Gust Speed Precip Events Conditions
12:15 AM 17.6 °F -1.9 °F 10.4 °F 73% 29.76 in 10.0 mi WNW 29.9 mph 38.0 mph N/A   Overcast
12:35 AM 17.6 °F -2.2 °F 10.4 °F 73% 29.76 in 10.0 mi WNW 31.1 mph 38.0 mph N/A   Overcast
12:55 AM 17.6 °F -2.2 °F 8.6 °F 68% 29.76 in 10.0 mi WNW 31.1 mph 38.0 mph N/A   Overcast
1:15 AM 17.6 °F -1.9 °F 8.6 °F 68% 29.77 in 10.0 mi WNW 29.9 mph 35.7 mph N/A   Overcast
1:35 AM 17.6 °F -1.9 °F 8.6 °F 68% 29.78 in 10.0 mi WNW 29.9 mph 35.7 mph N/A   Overcast
1:55 AM 15.8 °F -3.4 °F 10.4 °F 79% 29.79 in 5.0 mi WNW 26.5 mph 34.5 mph N/A   Overcast
2:15 AM 15.8 °F -4.4 °F 8.6 °F 73% 29.80 in 10.0 mi WNW 29.9 mph 35.7 mph N/A   Overcast
2:35 AM 15.8 °F -5.2 °F 6.8 °F 68% 29.80 in 10.0 mi WNW 33.4 mph 41.4 mph N/A   Overcast
2:55 AM 14.0 °F -7.1 °F 6.8 °F 73% 29.81 in 10.0 mi WNW 31.1 mph 38.0 mph N/A   Overcast
3:15 AM 12.2 °F -9.9 °F 5.0 °F 73% 29.81 in 10.0 mi WNW 32.2 mph 39.1 mph N/A   Overcast
3:35 AM 12.2 °F -8.2 °F 5.0 °F 73% 29.82 in 10.0 mi WNW 26.5 mph 39.1 mph N/A   Overcast
3:55 AM 12.2 °F -8.2 °F 5.0 °F 73% 29.82 in 10.0 mi WNW 26.5 mph 34.5 mph N/A   Overcast
4:15 AM 12.2 °F -9.6 °F 5.0 °F 73% 29.83 in 10.0 mi WNW 31.1 mph 39.1 mph N/A   Mostly Cloudy
4:35 AM 10.4 °F -10.3 °F 3.2 °F 73% 29.84 in 10.0 mi WNW 25.3 mph 31.1 mph N/A   Scattered Clouds
4:55 AM 10.4 °F -12.0 °F 3.2 °F 73% 29.85 in 10.0 mi WNW 31.1 mph 39.1 mph N/A   Scattered Clouds
5:15 AM 10.4 °F -12.0 °F 5.0 °F 79% 29.86 in 10.0 mi WNW 31.1 mph 38.0 mph N/A   Mostly Cloudy
5:55 AM 10.4 °F -10.3 °F 3.2 °F 73% 29.88 in 10.0 mi WNW 25.3 mph 32.2 mph N/A   Scattered Clouds
6:15 AM 10.4 °F -12.3 °F 3.2 °F 73% 29.88 in 5.0 mi WNW 32.2 mph 39.1 mph N/A   Mostly Cloudy
6:35 AM 8.6 °F -14.1 °F -0.4 °F 67% 29.89 in 10.0 mi WNW 29.9 mph 36.8 mph N/A   Mostly Cloudy
6:55 AM 8.6 °F -12.7 °F 1.4 °F 73% 29.91 in 10.0 mi WNW 25.3 mph 35.7 mph N/A   Partly Cloudy
7:15 AM 8.6 °F -13.4 °F -0.4 °F 67% 29.92 in 10.0 mi WNW 27.6 mph 35.7 mph N/A   Partly Cloudy
7:35 AM 8.6 °F -13.4 °F -0.4 °F 67% 29.93 in 8.0 mi WNW 27.6 mph 35.7 mph N/A   Scattered Clouds
7:55 AM 8.6 °F -14.1 °F -0.4 °F 67% 29.94 in 10.0 mi WNW 29.9 mph 38.0 mph N/A   Scattered Clouds
8:15 AM 8.6 °F -14.8 °F -0.4 °F 67% 29.95 in 10.0 mi WNW 32.2 mph 36.8 mph N/A   Partly Cloudy
8:35 AM 8.6 °F -13.8 °F -0.4 °F 67% 29.96 in 10.0 mi WNW 28.8 mph 36.8 mph N/A   Scattered Clouds
8:55 AM 8.6 °F -13.8 °F 1.4 °F 73% 29.97 in 10.0 mi WNW 28.8 mph 35.7 mph N/A   Mostly Cloudy
9:35 AM 8.6 °F -13.8 °F 1.4 °F 73% 29.99 in 10.0 mi WNW 28.8 mph 40.3 mph N/A   Mostly Cloudy
9:55 AM 10.4 °F -12.0 °F 1.4 °F 67% 29.99 in 9.0 mi WNW 31.1 mph 36.8 mph N/A   Mostly Cloudy
10:15 AM 10.4 °F -12.3 °F 1.4 °F 67% 30.00 in 10.0 mi WNW 32.2 mph 38.0 mph N/A   Mostly Cloudy
10:35 AM 10.4 °F -12.3 °F 1.4 °F 67% 30.00 in 10.0 mi WNW 32.2 mph 38.0 mph N/A   Mostly Cloudy
10:55 AM 10.4 °F -12.3 °F 3.2 °F 73% 30.01 in 10.0 mi WNW 32.2 mph 36.8 mph N/A   Mostly Cloudy
11:15 AM 10.4 °F -11.0 °F 3.2 °F 73% 30.02 in 7.0 mi WNW 27.6 mph 34.5 mph N/A   Mostly Cloudy
11:35 AM 10.4 °F -10.3 °F 3.2 °F 73% 30.03 in 5.0 mi WNW 25.3 mph 34.5 mph N/A   Overcast
12:15 PM 12.2 °F -9.3 °F 5.0 °F 73% 30.04 in 10.0 mi WNW 29.9 mph 36.8 mph N/A   Overcast
12:35 PM 12.2 °F -9.9 °F 3.2 °F 67% 30.04 in 10.0 mi WNW 32.2 mph 35.7 mph N/A   Mostly Cloudy
12:55 PM 12.2 °F -8.9 °F 3.2 °F 67% 30.04 in 10.0 mi WNW 28.8 mph 34.5 mph N/A   Mostly Cloudy
1:15 PM 14.0 °F -6.2 °F 6.8 °F 73% 30.04 in 10.0 mi WNW 27.6 mph 33.4 mph N/A   Overcast
1:35 PM 14.0 °F -6.2 °F 6.8 °F 73% 30.04 in 10.0 mi WNW 27.6 mph 32.2 mph N/A   Mostly Cloudy
1:55 PM 15.8 °F -4.1 °F 5.0 °F 62% 30.05 in 10.0 mi WNW 28.8 mph 33.4 mph N/A   Mostly Cloudy
2:15 PM 15.8 °F -3.4 °F 8.6 °F 73% 30.05 in 10.0 mi WNW 26.5 mph 32.2 mph N/A   Overcast
2:35 PM 17.6 °F -0.3 °F 8.6 °F 68% 30.06 in 10.0 mi WNW 24.2 mph 33.4 mph N/A   Mostly Cloudy
2:55 PM 17.6 °F -1.3 °F 8.6 °F 68% 30.06 in 10.0 mi WNW 27.6 mph 34.5 mph N/A   Mostly Cloudy
3:15 PM 17.6 °F -1.9 °F 8.6 °F 68% 30.07 in 10.0 mi WNW 29.9 mph 33.4 mph N/A   Mostly Cloudy
3:35 PM 17.6 °F -1.9 °F 10.4 °F 73% 30.08 in 10.0 mi WNW 29.9 mph 34.5 mph N/A   Partly Cloudy
3:55 PM 17.6 °F -1.0 °F 8.6 °F 68% 30.09 in 10.0 mi WNW 26.5 mph 32.2 mph N/A   Scattered Clouds
4:15 PM 17.6 °F -1.0 °F 6.8 °F 63% 30.10 in 10.0 mi WNW 26.5 mph 33.4 mph N/A   Scattered Clouds
4:35 PM 17.6 °F -0.3 °F 6.8 °F 63% 30.11 in 10.0 mi WNW 24.2 mph 29.9 mph N/A   Partly Cloudy
4:55 PM 17.6 °F -1.0 °F 6.8 °F 63% 30.11 in 10.0 mi WNW 26.5 mph 32.2 mph N/A   Clear
5:15 PM 15.8 °F -2.7 °F 6.8 °F 68% 30.12 in 10.0 mi WNW 24.2 mph 29.9 mph N/A   Clear
6:35 PM 14.0 °F -3.0 °F 6.8 °F 73% 30.16 in 10.0 mi NW 18.4 mph - N/A   Clear
6:55 PM 14.0 °F -3.4 °F 5.0 °F 67% 30.17 in 10.0 mi NW 19.6 mph 24.2 mph N/A   Clear
7:15 PM 12.2 °F -5.3 °F 5.0 °F 73% 30.17 in 10.0 mi NW 18.4 mph 21.9 mph N/A   Clear
7:35 PM 12.2 °F -5.8 °F 3.2 °F 67% 30.18 in 10.0 mi NW 19.6 mph 25.3 mph N/A   Clear
7:55 PM 12.2 °F -4.3 °F 3.2 °F 67% 30.19 in 10.0 mi NW 16.1 mph - N/A   Clear
8:15 PM 12.2 °F -3.7 °F 3.2 °F 67% 30.20 in 10.0 mi NW 15.0 mph - N/A   Clear
8:35 PM 10.4 °F -6.6 °F 3.2 °F 73% 30.21 in 10.0 mi NW 16.1 mph 23.0 mph N/A   Partly Cloudy
8:55 PM 10.4 °F -9.1 °F 1.4 °F 67% 30.22 in 10.0 mi NW 21.9 mph 26.5 mph N/A   Clear
9:15 PM 10.4 °F -7.2 °F 3.2 °F 73% 30.23 in 10.0 mi NW 17.3 mph 21.9 mph N/A   Partly Cloudy
9:35 PM 8.6 °F -10.0 °F -0.4 °F 67% 30.24 in 10.0 mi NNW 18.4 mph - N/A   Partly Cloudy
9:55 PM 8.6 °F -8.9 °F 1.4 °F 73% 30.25 in 10.0 mi NNW 16.1 mph - N/A   Clear
10:15 PM 8.6 °F -8.3 °F -0.4 °F 67% 30.26 in 10.0 mi NW 15.0 mph 20.7 mph N/A   Clear
10:35 PM 6.8 °F -8.6 °F -0.4 °F 72% 30.27 in 10.0 mi NNW 11.5 mph - N/A   Clear
10:55 PM 6.8 °F -11.8 °F -0.4 °F 72% 30.27 in 10.0 mi NW 17.3 mph - N/A   Clear
11:15 PM 6.8 °F -8.6 °F -2.2 °F 67% 30.28 in 10.0 mi NNW 11.5 mph - N/A   Clear
11:35 PM 6.8 °F -10.0 °F -0.4 °F 72% 30.28 in 10.0 mi NW 13.8 mph - N/A   Clear